Time;durP1;ratioP1;P1;durP2;ratioP2;P2;SDS_P1;SDS_P2;PMS_P1;PMS_P2;Temp;Humidity;BMP_temperature;BMP_pressure;BME280_temperature;BME280_humidity;BME280_pressure;Samples;Min_cycle;Max_cycle;Signal;HPM_P1;HPM_P2
2022/06/08 00:02:19;;;;;;;1.67;1.17;;;17.30;99.90;;;17.51;100.00;100530.66;5125488;28;20090;-73
2022/06/08 00:04:52;;;;;;;2.75;1.13;;;17.30;99.90;;;17.47;100.00;100535.03;5125614;29;20481;-73
2022/06/08 00:07:25;;;;;;;1.55;1.20;;;17.20;99.90;;;17.42;100.00;100523.63;5125314;29;20058;-73
2022/06/08 00:09:58;;;;;;;1.42;1.02;;;17.20;99.90;;;17.38;100.00;100528.84;5124598;28;20078;-73
2022/06/08 00:12:31;;;;;;;0.93;0.80;;;17.20;99.90;;;17.35;100.00;100529.75;5125521;29;20403;-73
2022/06/08 00:15:05;;;;;;;1.65;1.02;;;17.10;99.90;;;17.35;100.00;100527.09;5125193;29;20047;-73
2022/06/08 00:17:37;;;;;;;1.90;1.13;;;17.10;99.90;;;17.36;100.00;100534.13;5125454;29;20087;-73
2022/06/08 00:20:13;;;;;;;1.63;1.33;;;17.10;99.90;;;17.33;100.00;100528.84;5125209;29;20053;-73
2022/06/08 00:22:46;;;;;;;1.88;1.10;;;17.10;99.90;;;17.32;100.00;100513.91;5125124;29;20130;-73
2022/06/08 00:25:18;;;;;;;2.10;0.93;;;17.10;99.90;;;17.32;100.00;100527.97;5125124;29;20126;-73
2022/06/08 00:27:50;;;;;;;1.58;0.85;;;17.10;99.90;;;17.35;100.00;100521.84;5125371;28;20086;-73
2022/06/08 00:30:23;;;;;;;1.48;1.00;;;17.10;99.90;;;17.36;100.00;100513.06;5125104;29;20485;-73
2022/06/08 00:32:55;;;;;;;1.13;1.00;;;17.10;99.90;;;17.38;100.00;100515.69;5125291;29;20481;-73
2022/06/08 00:35:29;;;;;;;1.08;1.00;;;17.10;99.90;;;17.37;100.00;100517.44;5125232;28;20051;-73
2022/06/08 00:38:01;;;;;;;1.20;1.02;;;17.10;99.90;;;17.38;100.00;100511.28;5125130;29;20047;-73
2022/06/08 00:40:47;;;;;;;1.58;1.10;;;17.10;99.90;;;17.36;100.00;100511.28;5125044;29;20404;-73
2022/06/08 00:43:20;;;;;;;0.82;0.77;;;17.10;99.90;;;17.36;100.00;100518.31;5125272;29;20407;-73
2022/06/08 00:45:52;;;;;;;1.98;1.13;;;17.00;99.90;;;17.35;100.00;100512.19;5125133;29;20497;-73
2022/06/08 00:48:28;;;;;;;1.27;1.13;;;17.00;99.90;;;17.35;100.00;100503.41;5124766;29;20054;-73
2022/06/08 00:51:02;;;;;;;1.33;1.10;;;17.00;99.90;;;17.36;100.00;100497.25;5125074;29;20062;-73
2022/06/08 00:53:46;;;;;;;1.45;1.13;;;17.00;99.90;;;17.35;100.00;100506.91;5124694;29;20136;-73
2022/06/08 00:56:23;;;;;;;0.90;0.90;;;17.00;99.90;;;17.33;100.00;100503.38;5125118;29;20047;-73
2022/06/08 00:58:58;;;;;;;2.20;1.17;;;17.00;99.90;;;17.34;100.00;100504.25;5124905;28;20067;-73
2022/06/08 01:01:30;;;;;;;1.42;1.33;;;17.00;99.90;;;17.34;100.00;100504.25;5124294;29;20138;-73
2022/06/08 01:04:08;;;;;;;2.25;1.05;;;17.00;99.90;;;17.35;100.00;100503.41;5124961;29;20054;-73
2022/06/08 01:06:45;;;;;;;1.50;1.10;;;17.00;99.90;;;17.33;100.00;100492.81;5124862;29;20412;-73
2022/06/08 01:09:25;;;;;;;1.52;1.00;;;17.00;99.90;;;17.34;100.00;100493.72;5124816;29;20509;-73
2022/06/08 01:12:00;;;;;;;1.90;1.25;;;17.00;99.90;;;17.31;100.00;100484.06;5124898;28;20047;-73
2022/06/08 01:14:32;;;;;;;1.30;1.13;;;17.00;99.90;;;17.32;100.00;100484.94;5124832;29;20054;-73
2022/06/08 01:17:08;;;;;;;1.33;0.90;;;17.00;99.90;;;17.29;100.00;100477.03;5124432;28;20058;-73
2022/06/08 01:19:45;;;;;;;2.63;1.25;;;17.00;99.90;;;17.28;100.00;100477.91;5124392;29;20063;-73
2022/06/08 01:22:20;;;;;;;1.75;1.23;;;17.00;99.90;;;17.27;100.00;100471.75;5125587;28;20051;-73
2022/06/08 01:24:53;;;;;;;2.88;1.20;;;17.00;99.90;;;17.26;100.00;100470.00;5128740;29;20603;-73
2022/06/08 01:27:34;;;;;;;0.95;0.85;;;17.00;99.90;;;17.27;100.00;100470.88;5128517;29;20059;-73
2022/06/08 01:30:21;;;;;;;1.23;0.82;;;17.00;99.90;;;17.27;100.00;100469.09;5128403;29;20078;-73
2022/06/08 01:33:47;;;;;;;2.63;1.30;;;17.00;99.90;;;17.25;100.00;100464.72;5128531;28;20432;-73
2022/06/08 01:36:37;;;;;;;1.40;1.02;;;17.00;99.90;;;17.24;100.00;100463.84;5128385;28;20503;-73
2022/06/08 01:39:22;;;;;;;1.45;1.20;;;17.00;99.90;;;17.22;100.00;100452.44;5128013;29;20062;-73
2022/06/08 01:42:23;;;;;;;2.40;1.35;;;17.00;99.90;;;17.18;100.00;100450.66;5128082;29;20051;-73
2022/06/08 01:48:13;;;;;;;1.67;1.17;;;16.90;99.90;;;17.12;100.00;100449.75;5127980;29;20217;-73
2022/06/08 01:50:58;;;;;;;2.05;1.13;;;16.90;99.90;;;17.09;100.00;100448.00;5128098;29;20566;-73
2022/06/08 01:53:47;;;;;;;1.33;1.00;;;16.90;99.90;;;17.07;100.00;100448.00;5127779;29;20106;-73
2022/06/08 01:56:30;;;;;;;1.58;1.17;;;16.80;99.90;;;17.03;100.00;100451.50;5128071;29;20051;-73
2022/06/08 01:59:16;;;;;;;2.08;1.02;;;16.80;99.90;;;17.05;100.00;100444.47;5127862;29;20149;-73
2022/06/08 02:01:58;;;;;;;1.40;0.98;;;16.80;99.90;;;17.03;100.00;100451.50;5127878;29;20492;-73
2022/06/08 02:04:37;;;;;;;1.30;0.93;;;16.80;99.90;;;17.02;100.00;100444.47;5127626;29;20134;-73
2022/06/08 02:07:23;;;;;;;2.03;1.10;;;16.80;99.90;;;17.01;100.00;100437.44;5127593;29;20055;-73
2022/06/08 02:10:04;;;;;;;1.90;1.40;;;16.80;99.90;;;16.98;100.00;100434.81;5127701;29;20059;-73
2022/06/08 02:12:42;;;;;;;2.63;1.42;;;16.80;99.90;;;16.98;100.00;100424.28;5127844;29;20062;-73
2022/06/08 02:15:22;;;;;;;2.40;1.10;;;16.70;99.90;;;16.94;100.00;100432.16;5127580;29;20070;-73
2022/06/08 02:17:58;;;;;;;2.33;1.50;;;16.70;99.90;;;16.88;100.00;100424.22;5127698;29;20058;-73
2022/06/08 02:20:36;;;;;;;1.98;1.30;;;16.70;99.90;;;16.82;100.00;100414.56;5127467;29;20055;-73
2022/06/08 02:23:13;;;;;;;2.75;1.50;;;16.70;99.90;;;16.80;100.00;100411.06;5127625;29;20055;-73
2022/06/08 02:25:51;;;;;;;2.22;1.35;;;16.60;99.90;;;16.80;100.00;100411.06;5127579;29;20061;-73
2022/06/08 02:28:31;;;;;;;1.38;1.00;;;16.60;99.90;;;16.80;100.00;100411.06;5127067;28;20473;-73
2022/06/08 02:31:11;;;;;;;1.63;1.13;;;16.60;99.90;;;16.79;100.00;100409.28;5127280;28;20390;-73
2022/06/08 02:36:49;;;;;;;1.60;1.40;;;16.60;99.90;;;16.78;100.00;100407.53;5127036;29;20544;-73
2022/06/08 02:39:27;;;;;;;2.10;1.23;;;16.50;99.90;;;16.76;100.00;100404.91;5126853;28;20083;-73
2022/06/08 02:42:07;;;;;;;1.25;1.13;;;16.50;99.90;;;16.74;100.00;100403.13;5127004;29;20098;-73
2022/06/08 02:44:42;;;;;;;2.38;1.50;;;16.50;99.90;;;16.72;100.00;100402.25;5127271;28;20051;-73
2022/06/08 02:47:27;;;;;;;1.38;1.17;;;16.50;99.90;;;16.68;100.00;100405.72;5126966;29;20055;-73
2022/06/08 02:50:01;;;;;;;2.38;1.25;;;16.40;99.90;;;16.67;100.00;100398.69;5126974;29;20113;-73
2022/06/08 02:52:33;;;;;;;1.58;1.08;;;16.40;99.90;;;16.64;100.00;100406.59;5126797;29;20057;-73
2022/06/08 02:55:19;;;;;;;1.58;1.15;;;16.40;99.90;;;16.62;100.00;100395.16;5126967;29;20070;-73
2022/06/08 02:57:58;;;;;;;2.17;1.40;;;16.40;99.90;;;16.53;100.00;100394.25;5126674;29;20051;-73
2022/06/08 03:00:38;;;;;;;3.15;1.30;;;16.30;99.90;;;16.48;100.00;100387.22;5126824;28;20484;-73
2022/06/08 03:03:16;;;;;;;1.63;1.13;;;16.30;99.90;;;16.47;100.00;100385.44;5126434;29;20057;-73
2022/06/08 03:05:53;;;;;;;1.42;1.00;;;16.30;99.90;;;16.47;100.00;100393.34;5126834;28;20137;-73
2022/06/08 03:08:30;;;;;;;1.73;1.17;;;16.30;99.90;;;16.46;100.00;100387.22;5126420;29;20062;-73
2022/06/08 03:11:06;;;;;;;2.05;1.42;;;16.20;99.90;;;16.45;100.00;100384.56;5126709;29;20055;-73
2022/06/08 03:13:45;;;;;;;1.60;1.08;;;16.20;99.90;;;16.42;100.00;100374.91;5126683;29;20055;-73
2022/06/08 03:16:29;;;;;;;3.08;1.20;;;16.20;99.90;;;16.41;100.00;100381.03;5126560;29;20055;-73
2022/06/08 03:19:01;;;;;;;1.40;1.00;;;16.20;99.90;;;16.40;100.00;100379.28;5126072;29;20051;-73
2022/06/08 03:21:34;;;;;;;2.17;1.10;;;16.20;99.90;;;16.41;100.00;100377.53;5126465;29;20412;-72
2022/06/08 03:24:07;;;;;;;2.05;1.40;;;16.20;99.90;;;16.39;100.00;100374.03;5126157;29;20061;-72
2022/06/08 03:26:44;;;;;;;1.92;1.30;;;16.20;99.90;;;16.39;100.00;100377.53;5126094;29;20110;-72
2022/06/08 03:29:16;;;;;;;2.28;1.20;;;16.20;99.90;;;16.40;100.00;100374.03;5126293;29;20051;-73
2022/06/08 03:31:51;;;;;;;1.67;1.23;;;16.20;99.90;;;16.41;100.00;100381.03;5126036;29;20051;-73
2022/06/08 03:34:23;;;;;;;1.75;1.23;;;16.20;99.90;;;16.40;100.00;100389.81;5125895;29;20051;-72
2022/06/08 03:36:55;;;;;;;1.45;1.30;;;16.20;99.90;;;16.40;100.00;100388.94;5126070;29;20485;-73
2022/06/08 03:39:27;;;;;;;1.27;0.88;;;16.20;99.90;;;16.43;100.00;100391.56;5125640;29;20051;-73
2022/06/08 03:41:59;;;;;;;1.05;0.95;;;16.20;99.90;;;16.46;100.00;100395.09;5126197;28;20142;-73
2022/06/08 03:44:31;;;;;;;1.83;1.20;;;16.20;99.90;;;16.50;100.00;100386.38;5125672;28;20047;-73
2022/06/08 03:47:08;;;;;;;2.30;1.10;;;16.20;99.90;;;16.54;100.00;100393.38;5125692;29;20059;-73
2022/06/08 03:49:40;;;;;;;1.58;1.20;;;16.30;99.90;;;16.55;100.00;100384.59;5125444;28;20047;-73
2022/06/08 03:52:17;;;;;;;2.17;1.30;;;16.30;99.90;;;16.58;100.00;100393.41;5125847;29;20500;-73
2022/06/08 03:54:54;;;;;;;1.23;1.05;;;16.30;99.90;;;16.59;100.00;100389.91;5125874;28;20082;-73
2022/06/08 03:57:28;;;;;;;1.50;0.98;;;16.30;99.90;;;16.59;100.00;100395.16;5125875;28;20410;-73
2022/06/08 04:00:01;;;;;;;1.90;1.20;;;16.30;99.90;;;16.58;100.00;100399.53;5125311;29;20133;-73
2022/06/08 04:02:35;;;;;;;2.13;1.35;;;16.30;99.90;;;16.58;100.00;100393.41;5125466;29;20047;-73
2022/06/08 04:05:09;;;;;;;1.45;1.20;;;16.40;99.90;;;16.55;100.00;100389.88;5125370;29;20055;-73
2022/06/08 04:07:41;;;;;;;3.40;1.77;;;16.30;99.90;;;16.54;100.00;100393.38;5125686;29;20059;-73
2022/06/08 04:10:13;;;;;;;2.28;1.40;;;16.30;99.90;;;16.52;100.00;100389.00;5125557;28;20094;-73
2022/06/08 04:12:45;;;;;;;1.38;1.13;;;16.30;99.90;;;16.51;100.00;100385.47;5125542;29;20057;-73
2022/06/08 04:18:05;;;;;;;2.55;1.20;;;16.30;99.90;;;16.57;100.00;100386.38;5124803;29;20051;-73
2022/06/08 04:20:40;;;;;;;1.92;1.10;;;16.30;99.90;;;16.59;100.00;100389.91;5124940;29;20138;-72
2022/06/08 04:23:14;;;;;;;1.10;1.00;;;16.30;99.90;;;16.60;100.00;100383.75;5125446;29;20043;-72
2022/06/08 04:25:46;;;;;;;1.30;1.20;;;16.30;99.90;;;16.59;100.00;100382.00;5125084;29;20054;-73
2022/06/08 04:28:20;;;;;;;1.42;1.10;;;16.40;99.90;;;16.59;100.00;100385.50;5125328;29;20413;-72
2022/06/08 04:30:52;;;;;;;1.23;1.13;;;16.40;99.90;;;16.55;100.00;100381.97;5125290;29;20481;-73
2022/06/08 04:33:26;;;;;;;1.30;1.13;;;16.30;99.90;;;16.53;100.00;100381.09;5125266;29;20051;-73
2022/06/08 04:35:58;;;;;;;1.30;1.15;;;16.30;99.90;;;16.51;100.00;100382.84;5124860;29;20043;-72
2022/06/08 04:38:30;;;;;;;2.40;1.10;;;16.30;99.90;;;16.49;100.00;100384.56;5125133;29;20051;-73
2022/06/08 04:41:05;;;;;;;1.25;1.13;;;16.40;99.90;;;16.43;100.00;100378.41;5125098;29;20403;-72
2022/06/08 04:43:37;;;;;;;;;;;16.30;99.90;;;16.39;100.00;100369.66;5125629;28;20523;-73
2022/06/08 04:46:15;;;;;;;1.50;1.13;;;16.30;99.90;;;16.40;100.00;100367.88;5124909;29;19929;-73
2022/06/08 04:48:48;;;;;;;1.50;1.30;;;16.30;99.90;;;16.36;100.00;100364.34;5125113;28;20054;-73
2022/06/08 04:51:20;;;;;;;1.75;1.30;;;16.30;99.90;;;16.32;100.00;100357.34;5125108;28;20062;-73
2022/06/08 04:53:52;;;;;;;1.50;1.08;;;16.30;99.90;;;16.33;100.00;100366.09;5125056;29;20492;-73
2022/06/08 04:56:24;;;;;;;2.58;1.15;;;16.20;99.90;;;16.30;100.00;100364.34;5126046;28;20074;-73
2022/06/08 04:58:57;;;;;;;2.40;1.33;;;16.20;99.90;;;16.32;100.00;100359.97;5128989;29;20054;-73
2022/06/08 05:01:29;;;;;;;1.58;1.13;;;16.20;99.90;;;16.37;100.00;100353.00;5128673;29;20047;-73
2022/06/08 05:04:03;;;;;;;1.63;1.27;;;16.20;99.90;;;16.43;100.00;100350.38;5271603;23;20022;-66
2022/06/08 05:06:35;;;;;;;1.10;0.98;;;16.30;99.90;;;16.50;100.00;100349.53;5123326;28;20496;-66
2022/06/08 05:09:07;;;;;;;1.35;1.20;;;16.30;99.90;;;16.55;100.00;100347.75;5128313;28;20047;-66
2022/06/08 05:11:39;;;;;;;1.25;1.15;;;16.40;99.90;;;16.64;100.00;100351.31;5128765;29;20145;-66
2022/06/08 05:14:13;;;;;;;1.20;1.10;;;16.40;99.90;;;16.70;100.00;100354.88;5128582;28;20062;-66
2022/06/08 05:16:45;;;;;;;0.80;0.80;;;16.50;99.90;;;16.76;100.00;100348.75;5128458;29;20063;-66
2022/06/08 05:19:18;;;;;;;1.30;1.20;;;16.50;99.90;;;16.82;100.00;100346.13;5128345;28;20085;-66
2022/06/08 05:21:50;;;;;;;1.38;0.82;;;16.60;99.90;;;16.90;100.00;100343.53;5128916;28;20051;-67
2022/06/08 05:24:22;;;;;;;1.58;1.33;;;16.60;99.90;;;16.97;100.00;100340.91;5124260;29;20134;-66
2022/06/08 05:26:54;;;;;;;1.60;0.85;;;16.70;99.90;;;17.02;100.00;100333.03;5108477;29;20040;-66
2022/06/08 05:29:27;;;;;;;1.10;0.82;;;16.80;99.90;;;17.07;100.00;100336.50;5108654;29;20052;-66
2022/06/08 05:31:59;;;;;;;1.42;1.20;;;16.80;99.90;;;17.10;100.00;100341.81;5108844;29;20047;-67
2022/06/08 05:34:32;;;;;;;1.88;0.88;;;16.80;99.90;;;17.11;100.00;100342.69;5108908;29;20505;-67
2022/06/08 05:37:05;;;;;;;1.23;1.00;;;16.90;99.90;;;17.12;100.00;100340.03;5108381;29;20485;-67
2022/06/08 05:39:37;;;;;;;1.88;0.90;;;16.90;99.90;;;17.19;100.00;100335.66;5108459;29;20505;-67
2022/06/08 05:42:10;;;;;;;2.22;1.00;;;16.90;99.90;;;17.22;100.00;100322.50;5108393;29;20559;-67
2022/06/08 05:44:42;;;;;;;1.27;1.00;;;17.00;99.90;;;17.23;100.00;100334.78;5104622;29;20067;-67
2022/06/08 05:47:16;;;;;;;1.52;1.10;;;17.00;99.90;;;17.26;100.00;100319.84;5106442;29;20054;-66
2022/06/08 05:49:50;;;;;;;1.65;1.38;;;17.00;99.90;;;17.32;100.00;100321.59;5096383;29;20206;-66
2022/06/08 05:52:22;;;;;;;2.65;1.20;;;17.10;99.90;;;17.35;100.00;100316.34;5101694;29;20074;-66
2022/06/08 05:54:54;;;;;;;1.88;1.23;;;17.10;99.90;;;17.38;100.00;100323.38;5096352;29;20505;-67
2022/06/08 05:57:26;;;;;;;1.23;1.13;;;17.10;99.90;;;17.37;100.00;100306.69;5099247;29;20135;-68
2022/06/08 05:59:58;;;;;;;2.13;1.40;;;17.20;99.90;;;17.43;100.00;100309.31;5102590;29;20052;-71
2022/06/08 06:02:31;;;;;;;1.55;1.23;;;17.20;99.90;;;17.55;100.00;100303.16;5108210;29;20138;-68
2022/06/08 06:05:06;;;;;;;1.48;1.00;;;17.30;99.90;;;17.73;100.00;100299.63;5107956;29;20138;-68
2022/06/08 06:07:39;;;;;;;1.30;1.20;;;17.40;99.90;;;17.86;100.00;100288.16;5107470;29;20043;-68
2022/06/08 06:10:12;;;;;;;1.15;1.00;;;17.50;99.90;;;18.08;100.00;100292.50;5107900;29;20070;-69
2022/06/08 06:12:45;;;;;;;2.55;1.45;;;17.70;99.90;;;18.32;100.00;100298.53;5107374;29;20138;-67
2022/06/08 06:15:18;;;;;;;1.20;1.05;;;17.90;99.90;;;18.52;99.32;100295.81;5107676;29;20139;-68
2022/06/08 06:17:50;;;;;;;1.85;1.02;;;18.10;99.90;;;18.73;97.58;100300.13;5105011;29;20043;-69
2022/06/08 06:20:24;;;;;;;1.30;1.17;;;18.30;99.90;;;18.93;95.74;100295.59;5107568;29;20054;-70
2022/06/08 06:22:56;;;;;;;1.58;1.00;;;18.50;99.90;;;19.08;93.27;100287.53;5107589;29;20052;-68
2022/06/08 06:25:28;;;;;;;2.42;1.50;;;18.70;99.90;;;19.20;91.48;100290.09;5107767;29;20052;-70
2022/06/08 06:28:00;;;;;;;3.38;1.50;;;18.80;99.90;;;19.36;90.14;100295.22;5105324;29;20505;-70
2022/06/08 06:30:32;;;;;;;2.03;1.15;;;18.90;99.90;;;19.47;88.78;100290.72;5107450;29;20083;-69
2022/06/08 06:33:05;;;;;;;1.73;1.08;;;19.00;99.90;;;19.61;88.07;100294.13;5107269;29;20090;-69
2022/06/08 06:35:39;;;;;;;1.42;1.05;;;19.20;99.90;;;19.76;87.29;100299.28;5105884;29;20058;-70
2022/06/08 06:38:11;;;;;;;;;;;19.30;99.90;;;19.83;86.79;100293.94;5106646;29;20166;-69
2022/06/08 06:40:43;;;;;;;3.25;1.10;;;19.40;99.90;;;19.95;86.20;100296.41;5107092;29;19998;-69
2022/06/08 06:43:15;;;;;;;3.25;1.60;;;19.50;99.90;;;19.98;85.30;100292.00;5106490;29;20051;-68
2022/06/08 06:45:47;;;;;;;1.02;0.98;;;19.50;99.90;;;20.01;84.87;100283.13;5107182;29;20512;-70
2022/06/08 06:48:19;;;;;;;3.53;1.20;;;19.60;99.90;;;20.06;84.31;100282.19;5107277;29;20130;-69
2022/06/08 06:50:53;;;;;;;1.00;0.88;;;19.60;99.90;;;20.07;83.83;100293.63;5107268;29;20059;-71
2022/06/08 06:53:25;;;;;;;1.05;0.95;;;19.70;99.90;;;20.09;83.61;100289.22;5107194;29;20056;-70
2022/06/08 06:55:57;;;;;;;1.13;1.02;;;19.70;99.90;;;20.14;83.37;100295.31;5107094;29;20055;-70
2022/06/08 06:58:29;;;;;;;1.83;1.20;;;19.70;99.90;;;20.16;82.91;100298.84;5106642;29;20059;-69
2022/06/08 07:01:01;;;;;;;1.08;0.98;;;19.70;99.90;;;20.20;82.76;100300.53;5107164;29;20070;-69
2022/06/08 07:03:35;;;;;;;2.22;1.02;;;19.70;99.90;;;20.22;83.22;100296.13;5107347;29;20051;-69
2022/06/08 07:06:08;;;;;;;1.15;0.98;;;19.80;99.90;;;20.19;82.94;100282.03;5106951;29;20556;-71
2022/06/08 07:08:40;;;;;;;1.23;1.13;;;19.80;99.90;;;20.22;82.52;100290.81;5106559;29;20056;-69
2022/06/08 07:14:06;;;;;;;2.97;1.20;;;19.80;99.90;;;20.22;82.47;100277.59;5106749;29;20059;-70
2022/06/08 07:16:38;;;;;;;5.00;1.33;;;19.80;99.90;;;20.21;82.26;100274.94;5106716;29;20054;-72
2022/06/08 07:19:11;;;;;;;2.17;1.10;;;19.80;99.90;;;20.15;82.92;100286.50;5105948;29;20051;-71
2022/06/08 07:21:44;;;;;;;2.75;1.33;;;19.80;99.90;;;20.07;83.21;100275.13;5106478;29;20142;-72
2022/06/08 07:24:20;;;;;;;2.15;1.33;;;19.80;99.90;;;19.92;83.78;100267.38;5106823;29;20237;-72
2022/06/08 07:26:53;;;;;;;2.10;1.13;;;19.70;99.90;;;19.76;84.61;100267.56;5106933;29;20139;-70
2022/06/08 07:29:25;;;;;;;2.33;1.42;;;19.50;99.90;;;19.65;85.71;100265.91;5106280;29;20047;-71
2022/06/08 07:31:58;;;;;;;1.30;1.20;;;19.40;99.90;;;19.55;86.37;100267.72;5106463;29;20048;-70
2022/06/08 07:34:30;;;;;;;2.03;1.40;;;19.30;99.90;;;19.53;87.22;100262.47;5106405;29;20059;-70
2022/06/08 07:37:04;;;;;;;1.38;1.27;;;19.30;99.90;;;19.59;87.82;100253.63;5106422;29;20079;-72
2022/06/08 07:39:37;;;;;;;1.92;1.27;;;19.20;99.90;;;19.63;87.67;100260.66;5106095;29;20063;-71
2022/06/08 07:42:10;;;;;;;2.28;1.27;;;19.30;99.90;;;19.68;87.54;100255.28;5106267;29;20488;-70
2022/06/08 07:44:42;;;;;;;1.63;1.02;;;19.30;99.90;;;19.68;87.49;100250.88;5106078;29;20139;-72
2022/06/08 07:47:14;;;;;;;1.48;1.17;;;19.30;99.90;;;19.73;87.12;100249.06;5106417;29;20479;-71
2022/06/08 07:49:49;;;;;;;2.20;1.20;;;19.30;99.90;;;19.75;86.88;100239.34;5106073;29;20051;-71
2022/06/08 07:52:23;;;;;;;1.63;1.40;;;19.40;99.90;;;19.79;86.76;100241.06;5106045;29;20209;-72
2022/06/08 07:54:56;;;;;;;2.70;1.02;;;19.40;99.90;;;19.84;86.70;100234.88;5105981;29;20058;-72
2022/06/08 07:57:32;;;;;;;2.03;1.33;;;19.50;99.90;;;19.86;85.96;100235.72;5106184;29;20051;-71
2022/06/08 08:00:07;;;;;;;1.60;1.08;;;19.50;99.90;;;19.94;85.73;100245.28;5105808;29;20058;-71
2022/06/08 08:02:39;;;;;;;1.10;1.00;;;19.50;99.90;;;20.17;84.97;100242.38;5105854;29;20507;-72
2022/06/08 08:05:13;;;;;;;1.83;0.95;;;19.60;99.90;;;20.54;83.14;100247.19;5105780;29;20051;-72
2022/06/08 08:07:47;;;;;;;3.20;1.13;;;19.80;99.90;;;21.08;80.82;100236.63;5105798;29;20044;-71
2022/06/08 08:10:23;;;;;;;1.83;1.10;;;20.20;99.90;;;21.77;77.11;100233.59;5106072;29;20075;-72
2022/06/08 08:12:55;;;;;;;2.78;1.05;;;20.70;99.90;;;22.26;72.36;100240.56;5105966;29;20066;-70
2022/06/08 08:15:28;;;;;;;1.85;1.10;;;21.00;99.90;;;22.53;70.80;100243.50;5105927;29;20087;-71
2022/06/08 08:18:00;;;;;;;2.30;1.10;;;21.30;99.90;;;22.85;69.51;100234.78;5105843;29;20569;-71
2022/06/08 08:20:34;;;;;;;3.65;1.25;;;21.60;99.90;;;23.42;68.19;100224.47;5105530;29;20504;-71
2022/06/08 08:23:07;;;;;;;3.25;0.90;;;21.90;99.90;;;24.00;66.57;100227.34;5105764;29;20047;-71
2022/06/08 08:25:39;;;;;;;1.35;1.00;;;22.40;99.90;;;24.31;63.34;100227.25;5105908;29;20417;-71
2022/06/08 08:28:12;;;;;;;0.82;0.80;;;22.70;99.90;;;24.50;60.37;100223.13;5105357;29;20083;-71
2022/06/08 08:30:44;;;;;;;3.30;0.80;;;22.80;99.90;;;24.71;60.04;100224.25;5105496;29;20058;-72
2022/06/08 08:33:16;;;;;;;2.80;1.00;;;23.00;99.80;;;25.15;57.87;100220.13;5105508;29;20134;-69
2022/06/08 08:35:50;;;;;;;1.83;0.90;;;23.20;98.90;;;25.54;57.30;100229.47;5105534;29;20424;-70
2022/06/08 08:38:23;;;;;;;2.65;1.00;;;23.40;98.60;;;26.11;54.83;100207.78;5104877;29;20052;-69
2022/06/08 08:40:58;;;;;;;1.40;0.80;;;23.80;97.50;;;26.56;54.17;100206.09;5105250;29;20099;-70
2022/06/08 08:43:36;;;;;;;3.40;0.90;;;24.30;97.20;;;26.95;52.74;100211.59;5105452;29;20052;-70
2022/06/08 08:46:25;;;;;;;2.33;0.82;;;24.60;96.20;;;27.44;50.84;100209.50;5105470;29;20067;-69
2022/06/08 08:49:04;;;;;;;2.53;1.02;;;25.00;94.90;;;27.75;49.20;100204.56;5105563;29;20075;-69
2022/06/08 08:51:42;;;;;;;2.80;0.85;;;25.40;93.30;;;27.50;48.94;100198.53;5105551;29;20500;-69
2022/06/08 08:54:26;;;;;;;2.47;0.90;;;25.40;92.30;;;27.26;49.03;100198.69;5105378;29;20146;-71
2022/06/08 08:57:14;;;;;;;0.73;0.73;;;25.40;91.40;;;27.28;48.94;100190.59;5105005;29;20059;-70
2022/06/08 08:59:49;;;;;;;2.42;0.90;;;25.30;91.20;;;27.66;48.81;100198.72;5105021;29;20052;-71
2022/06/08 09:05:20;;;;;;;2.10;0.77;;;25.60;90.40;;;27.05;48.56;100191.56;5105073;29;20063;-70
2022/06/08 09:07:53;;;;;;;1.00;0.68;;;25.30;89.40;;;26.36;50.42;100181.00;5105159;29;20400;-70
2022/06/08 09:10:28;;;;;;;1.30;0.63;;;25.00;90.40;;;26.05;52.52;100178.66;5104731;29;20143;-70
2022/06/08 09:13:04;;;;;;;1.83;0.70;;;24.70;91.30;;;25.89;52.60;100177.50;5105184;29;20058;-70
2022/06/08 09:15:46;;;;;;;1.55;0.90;;;24.60;91.50;;;25.86;53.31;100169.59;5104962;29;20058;-71
2022/06/08 09:18:33;;;;;;;2.80;0.93;;;24.50;92.00;;;25.94;53.31;100173.72;5104866;29;20076;-70
2022/06/08 09:21:31;;;;;;;2.10;0.90;;;24.50;92.10;;;25.82;53.83;100168.88;5105060;29;20052;-70
2022/06/08 09:24:21;;;;;;;2.72;1.00;;;24.50;92.40;;;25.56;54.95;100166.25;5105095;29;20058;-72
2022/06/08 09:27:08;;;;;;;1.73;0.77;;;24.40;92.80;;;25.15;55.84;100156.13;5105004;29;20074;-55
2022/06/08 09:29:52;;;;;;;1.88;0.73;;;24.10;93.40;;;24.68;56.40;100154.22;5104604;29;20167;-54
2022/06/08 09:32:31;;;;;;;1.45;1.00;;;23.80;92.90;;;24.24;55.98;100151.16;5104949;29;20416;-56
2022/06/08 09:35:20;;;;;;;1.92;0.77;;;23.50;92.50;;;23.88;56.94;100148.72;5104809;29;20066;-56
2022/06/08 09:37:57;;;;;;;2.22;0.90;;;23.20;92.90;;;23.60;57.28;100145.06;5104986;29;20412;-55
2022/06/08 09:40:38;;;;;;;1.75;0.90;;;23.00;93.00;;;23.35;57.57;100142.25;5104672;29;20416;-56
2022/06/08 09:43:53;;;;;;;2.50;0.98;;;22.80;93.00;;;23.11;57.05;100141.13;5105229;29;20409;-55
2022/06/08 09:52:46;;;;;;;3.47;1.27;;;22.20;93.10;;;22.58;57.95;100148.66;5108523;29;20532;-55
2022/06/08 09:55:31;;;;;;;2.63;0.85;;;22.00;93.20;;;22.38;58.98;100149.16;5108728;29;20138;-55
2022/06/08 09:58:24;;;;;;;3.88;1.20;;;21.90;93.60;;;22.25;59.09;100148.56;5108661;29;20051;-54
2022/06/08 10:01:00;;;;;;;;;;;21.70;93.80;;;22.16;59.28;100146.97;5108867;29;20107;-55
2022/06/08 10:03:54;;;;;;;1.35;0.70;;;21.70;93.90;;;22.13;59.57;100148.84;5108499;29;20265;-53
2022/06/08 10:06:35;;;;;;;1.67;0.85;;;21.60;94.10;;;22.13;59.95;100146.19;5108171;29;20062;-54
2022/06/08 10:09:15;;;;;;;;;;;21.60;94.40;;;22.13;60.30;100143.53;5108681;29;20501;-54
2022/06/08 10:11:57;;;;;;;2.05;0.90;;;21.60;94.70;;;22.16;60.93;100146.09;5108065;29;19945;-55
2022/06/08 10:14:42;;;;;;;1.30;0.82;;;21.60;95.00;;;22.16;61.42;100144.31;5107734;29;20052;-54
2022/06/08 10:17:18;;;;;;;2.20;0.70;;;21.60;95.30;;;22.20;62.21;100145.13;5107988;29;20134;-54
2022/06/08 10:20:04;;;;;;;2.67;0.70;;;21.70;95.80;;;22.27;62.71;100145.88;5107646;29;20078;-55
2022/06/08 10:22:42;;;;;;;1.42;0.80;;;21.70;96.20;;;22.34;62.68;100144.81;5107701;29;20572;-54
2022/06/08 10:25:21;;;;;;;0.98;0.90;;;21.80;96.40;;;22.39;62.26;100138.50;5107623;29;20051;-55
2022/06/08 10:27:56;;;;;;;2.13;0.90;;;21.80;96.30;;;22.45;62.32;100146.31;5107905;29;20470;-55
2022/06/08 10:30:35;;;;;;;3.58;1.23;;;21.90;96.20;;;22.52;62.02;100130.22;5106874;29;20130;-55
2022/06/08 10:33:14;;;;;;;2.05;0.70;;;21.90;96.20;;;22.59;61.82;100131.81;5107967;29;20469;-55
2022/06/08 10:35:53;;;;;;;4.55;1.20;;;22.00;96.10;;;22.70;61.12;100125.34;5107839;29;20056;-54
2022/06/08 10:38:35;;;;;;;2.28;0.98;;;22.00;95.90;;;22.74;60.75;100121.66;5107723;29;20477;-56
2022/06/08 10:44:34;;;;;;;1.25;0.80;;;22.10;95.40;;;22.72;60.03;100109.34;5107636;29;20052;-56
2022/06/08 10:47:23;;;;;;;4.22;1.25;;;22.10;95.10;;;22.71;61.57;100118.22;5107400;29;20056;-57
2022/06/08 10:50:14;;;;;;;1.70;0.93;;;22.10;95.90;;;22.59;61.23;100122.06;5107597;29;20059;-55
2022/06/08 10:52:49;;;;;;;4.38;1.00;;;22.00;95.70;;;22.42;62.31;100134.88;5107159;29;20063;-56
2022/06/08 10:55:46;;;;;;;2.97;1.30;;;21.90;96.20;;;22.09;64.56;100131.25;5106981;29;20328;-55
2022/06/08 10:58:19;;;;;;;4.35;1.10;;;21.60;97.20;;;21.83;66.47;100153.88;5109219;29;20115;-69
2022/06/08 11:01:01;;;;;;;5.18;1.30;;;21.40;98.20;;;21.55;68.41;100163.31;5107103;29;20493;-68
2022/06/08 11:03:59;;;;;;;4.22;1.40;;;21.20;99.30;;;21.16;69.86;100172.88;5106951;29;20131;-70
2022/06/08 11:06:57;;;;;;;1.85;0.85;;;20.90;99.90;;;20.71;72.68;100164.84;5158355;23;20047;-84
2022/06/08 11:09:56;;;;;;;3.38;1.30;;;20.40;99.90;;;20.50;75.76;100166.06;5130314;28;20055;-81
2022/06/08 11:12:52;;;;;;;2.58;1.05;;;20.20;99.90;;;20.43;77.36;100169.66;5130961;29;20059;-81
2022/06/08 11:15:55;;;;;;;4.63;1.20;;;20.10;99.90;;;20.38;78.64;100160.91;5131578;29;20070;-83